sensor_id;sensor_type;location;lat;lon;timestamp;temperature;humidity
66594;DHT22;53450;42.584;23.366;2023-02-24T00:01:56;4.95;84.23
66594;DHT22;53450;42.584;23.366;2023-02-24T00:04:32;4.91;84.23
66594;DHT22;53450;42.584;23.366;2023-02-24T00:06:58;4.89;84.12
66594;DHT22;53450;42.584;23.366;2023-02-24T00:09:26;4.87;84.10
66594;DHT22;53450;42.584;23.366;2023-02-24T00:11:53;4.88;84.04
66594;DHT22;53450;42.584;23.366;2023-02-24T00:14:20;4.87;83.95
66594;DHT22;53450;42.584;23.366;2023-02-24T00:16:46;4.84;83.99
66594;DHT22;53450;42.584;23.366;2023-02-24T00:19:15;4.84;84.10
66594;DHT22;53450;42.584;23.366;2023-02-24T00:21:41;4.77;84.23
66594;DHT22;53450;42.584;23.366;2023-02-24T00:24:33;4.77;84.23
66594;DHT22;53450;42.584;23.366;2023-02-24T00:27:02;4.78;84.25
66594;DHT22;53450;42.584;23.366;2023-02-24T00:29:32;4.81;84.07
66594;DHT22;53450;42.584;23.366;2023-02-24T00:31:58;4.75;84.15
66594;DHT22;53450;42.584;23.366;2023-02-24T00:34:31;4.77;84.21
66594;DHT22;53450;42.584;23.366;2023-02-24T00:36:58;4.78;84.08
66594;DHT22;53450;42.584;23.366;2023-02-24T00:39:24;4.75;83.91
66594;DHT22;53450;42.584;23.366;2023-02-24T00:42:02;4.88;83.89
66594;DHT22;53450;42.584;23.366;2023-02-24T00:44:43;4.78;83.93
66594;DHT22;53450;42.584;23.366;2023-02-24T00:47:37;4.80;83.79
66594;DHT22;53450;42.584;23.366;2023-02-24T00:50:29;4.85;83.56
66594;DHT22;53450;42.584;23.366;2023-02-24T00:52:55;4.80;83.81
66594;DHT22;53450;42.584;23.366;2023-02-24T00:55:21;4.77;83.87
66594;DHT22;53450;42.584;23.366;2023-02-24T00:57:48;4.73;83.95
66594;DHT22;53450;42.584;23.366;2023-02-24T01:00:16;4.80;83.84
66594;DHT22;53450;42.584;23.366;2023-02-24T01:02:46;4.87;83.60
66594;DHT22;53450;42.584;23.366;2023-02-24T01:05:13;4.88;83.46
66594;DHT22;53450;42.584;23.366;2023-02-24T01:07:39;4.84;83.43
66594;DHT22;53450;42.584;23.366;2023-02-24T01:10:05;4.98;83.16
66594;DHT22;53450;42.584;23.366;2023-02-24T01:12:36;4.88;83.17
66594;DHT22;53450;42.584;23.366;2023-02-24T01:15:16;4.92;83.29
66594;DHT22;53450;42.584;23.366;2023-02-24T01:17:42;4.91;83.13
66594;DHT22;53450;42.584;23.366;2023-02-24T01:20:09;5.02;82.83
66594;DHT22;53450;42.584;23.366;2023-02-24T01:22:41;5.01;82.81
66594;DHT22;53450;42.584;23.366;2023-02-24T01:25:07;5.05;82.98
66594;DHT22;53450;42.584;23.366;2023-02-24T01:27:33;5.01;82.86
66594;DHT22;53450;42.584;23.366;2023-02-24T01:30:02;4.98;83.09
66594;DHT22;53450;42.584;23.366;2023-02-24T01:32:29;5.02;83.00
66594;DHT22;53450;42.584;23.366;2023-02-24T01:34:56;5.02;82.81
66594;DHT22;53450;42.584;23.366;2023-02-24T01:37:23;5.02;83.01
66594;DHT22;53450;42.584;23.366;2023-02-24T01:39:49;5.02;83.08
66594;DHT22;53450;42.584;23.366;2023-02-24T01:42:19;4.96;83.21
66594;DHT22;53450;42.584;23.366;2023-02-24T01:47:12;4.87;83.34
66594;DHT22;53450;42.584;23.366;2023-02-24T01:49:44;4.80;83.58
66594;DHT22;53450;42.584;23.366;2023-02-24T01:52:20;4.70;83.90
66594;DHT22;53450;42.584;23.366;2023-02-24T01:55:19;4.58;84.13
66594;DHT22;53450;42.584;23.366;2023-02-24T01:57:48;4.67;84.06
66594;DHT22;53450;42.584;23.366;2023-02-24T02:00:15;4.78;83.70
66594;DHT22;53450;42.584;23.366;2023-02-24T02:03:31;4.67;83.83
66594;DHT22;53450;42.584;23.366;2023-02-24T02:06:11;4.74;83.91
66594;DHT22;53450;42.584;23.366;2023-02-24T02:08:40;4.63;83.81
66594;DHT22;53450;42.584;23.366;2023-02-24T02:11:12;4.58;83.94
66594;DHT22;53450;42.584;23.366;2023-02-24T02:13:42;4.60;83.92
66594;DHT22;53450;42.584;23.366;2023-02-24T02:25:07;4.53;83.73
66594;DHT22;53450;42.584;23.366;2023-02-24T02:27:54;4.64;83.43
66594;DHT22;53450;42.584;23.366;2023-02-24T02:30:41;4.58;83.27
66594;DHT22;53450;42.584;23.366;2023-02-24T02:33:27;4.58;83.37
66594;DHT22;53450;42.584;23.366;2023-02-24T02:38:41;4.60;82.94
66594;DHT22;53450;42.584;23.366;2023-02-24T02:41:16;4.56;83.13
66594;DHT22;53450;42.584;23.366;2023-02-24T02:44:15;4.60;83.05
66594;DHT22;53450;42.584;23.366;2023-02-24T02:46:47;4.73;82.81
66594;DHT22;53450;42.584;23.366;2023-02-24T02:49:25;4.58;82.76
66594;DHT22;53450;42.584;23.366;2023-02-24T02:52:04;4.39;83.47
66594;DHT22;53450;42.584;23.366;2023-02-24T02:54:44;4.39;83.68
66594;DHT22;53450;42.584;23.366;2023-02-24T02:57:22;4.53;83.29
66594;DHT22;53450;42.584;23.366;2023-02-24T02:59:58;4.63;82.91
66594;DHT22;53450;42.584;23.366;2023-02-24T03:02:29;4.44;83.32
66594;DHT22;53450;42.584;23.366;2023-02-24T03:05:06;4.42;83.49
66594;DHT22;53450;42.584;23.366;2023-02-24T03:07:37;4.52;83.11
66594;DHT22;53450;42.584;23.366;2023-02-24T03:10:08;4.47;83.18
66594;DHT22;53450;42.584;23.366;2023-02-24T03:12:37;4.49;83.19
66594;DHT22;53450;42.584;23.366;2023-02-24T03:15:08;4.47;82.99
66594;DHT22;53450;42.584;23.366;2023-02-24T03:17:38;4.56;82.73
66594;DHT22;53450;42.584;23.366;2023-02-24T03:20:14;4.67;82.54
66594;DHT22;53450;42.584;23.366;2023-02-24T03:22:51;4.70;82.22
66594;DHT22;53450;42.584;23.366;2023-02-24T03:25:23;4.73;82.08
66594;DHT22;53450;42.584;23.366;2023-02-24T03:28:00;4.58;82.41
66594;DHT22;53450;42.584;23.366;2023-02-24T03:30:55;4.60;82.59
66594;DHT22;53450;42.584;23.366;2023-02-24T03:33:42;4.73;82.00
66594;DHT22;53450;42.584;23.366;2023-02-24T03:36:12;4.75;81.86
66594;DHT22;53450;42.584;23.366;2023-02-24T03:38:41;4.68;81.81
66594;DHT22;53450;42.584;23.366;2023-02-24T03:41:09;4.56;82.14
66594;DHT22;53450;42.584;23.366;2023-02-24T03:43:42;4.49;82.24
66594;DHT22;53450;42.584;23.366;2023-02-24T03:46:13;4.40;82.69
66594;DHT22;53450;42.584;23.366;2023-02-24T03:48:47;4.36;82.86
66594;DHT22;53450;42.584;23.366;2023-02-24T03:51:19;4.36;82.86
66594;DHT22;53450;42.584;23.366;2023-02-24T03:56:44;4.33;82.89
66594;DHT22;53450;42.584;23.366;2023-02-24T03:59:27;4.28;83.19
66594;DHT22;53450;42.584;23.366;2023-02-24T04:02:04;4.34;83.11
66594;DHT22;53450;42.584;23.366;2023-02-24T04:04:58;4.28;83.26
66594;DHT22;53450;42.584;23.366;2023-02-24T04:07:56;4.23;83.34
66594;DHT22;53450;42.584;23.366;2023-02-24T04:10:43;4.19;83.25
66594;DHT22;53450;42.584;23.366;2023-02-24T04:13:52;4.19;83.40
66594;DHT22;53450;42.584;23.366;2023-02-24T04:16:28;4.09;83.83
66594;DHT22;53450;42.584;23.366;2023-02-24T04:19:05;4.12;83.46
66594;DHT22;53450;42.584;23.366;2023-02-24T04:21:35;4.17;83.69
66594;DHT22;53450;42.584;23.366;2023-02-24T04:24:04;4.19;83.90
66594;DHT22;53450;42.584;23.366;2023-02-24T04:26:37;4.19;84.24
66594;DHT22;53450;42.584;23.366;2023-02-24T04:29:06;4.19;84.08
66594;DHT22;53450;42.584;23.366;2023-02-24T04:31:33;4.13;84.06
66594;DHT22;53450;42.584;23.366;2023-02-24T04:33:59;4.09;84.18
66594;DHT22;53450;42.584;23.366;2023-02-24T04:36:33;4.07;84.42
66594;DHT22;53450;42.584;23.366;2023-02-24T04:38:59;4.12;84.43
66594;DHT22;53450;42.584;23.366;2023-02-24T04:41:25;4.09;84.44
66594;DHT22;53450;42.584;23.366;2023-02-24T04:43:51;4.09;84.50
66594;DHT22;53450;42.584;23.366;2023-02-24T04:46:18;4.06;84.50
66594;DHT22;53450;42.584;23.366;2023-02-24T04:48:43;4.05;84.64
66594;DHT22;53450;42.584;23.366;2023-02-24T04:51:10;4.03;84.50
66594;DHT22;53450;42.584;23.366;2023-02-24T04:53:35;4.01;84.16
66594;DHT22;53450;42.584;23.366;2023-02-24T04:56:03;4.07;83.38
66594;DHT22;53450;42.584;23.366;2023-02-24T04:58:35;3.89;83.34
66594;DHT22;53450;42.584;23.366;2023-02-24T05:01:06;3.82;83.61
66594;DHT22;53450;42.584;23.366;2023-02-24T05:03:33;3.77;83.72
66594;DHT22;53450;42.584;23.366;2023-02-24T05:06:00;3.79;83.73
66594;DHT22;53450;42.584;23.366;2023-02-24T05:08:28;3.79;83.40
66594;DHT22;53450;42.584;23.366;2023-02-24T05:10:54;3.75;83.61
66594;DHT22;53450;42.584;23.366;2023-02-24T05:13:26;3.77;83.57
66594;DHT22;53450;42.584;23.366;2023-02-24T05:15:54;3.61;83.78
66594;DHT22;53450;42.584;23.366;2023-02-24T05:18:20;3.61;83.81
66594;DHT22;53450;42.584;23.366;2023-02-24T05:20:50;3.63;83.90
66594;DHT22;53450;42.584;23.366;2023-02-24T05:23:41;3.70;83.85
66594;DHT22;53450;42.584;23.366;2023-02-24T05:26:15;3.79;83.53
66594;DHT22;53450;42.584;23.366;2023-02-24T05:28:42;3.91;83.19
66594;DHT22;53450;42.584;23.366;2023-02-24T05:31:13;4.03;82.67
66594;DHT22;53450;42.584;23.366;2023-02-24T05:33:41;3.99;82.59
66594;DHT22;53450;42.584;23.366;2023-02-24T05:36:10;3.86;83.04
66594;DHT22;53450;42.584;23.366;2023-02-24T05:38:37;3.88;83.19
66594;DHT22;53450;42.584;23.366;2023-02-24T05:41:11;4.06;82.85
66594;DHT22;53450;42.584;23.366;2023-02-24T05:43:53;4.09;82.63
66594;DHT22;53450;42.584;23.366;2023-02-24T05:46:24;4.07;82.70
66594;DHT22;53450;42.584;23.366;2023-02-24T05:49:04;4.10;82.85
66594;DHT22;53450;42.584;23.366;2023-02-24T05:51:35;4.07;83.00
66594;DHT22;53450;42.584;23.366;2023-02-24T05:54:01;4.26;83.02
66594;DHT22;53450;42.584;23.366;2023-02-24T05:56:30;4.39;82.71
66594;DHT22;53450;42.584;23.366;2023-02-24T05:58:58;4.36;83.10
66594;DHT22;53450;42.584;23.366;2023-02-24T06:01:28;4.60;82.63
66594;DHT22;53450;42.584;23.366;2023-02-24T06:03:55;4.58;81.89
66594;DHT22;53450;42.584;23.366;2023-02-24T06:06:31;4.64;81.75
66594;DHT22;53450;42.584;23.366;2023-02-24T06:08:58;4.61;81.44
66594;DHT22;53450;42.584;23.366;2023-02-24T06:11:26;4.70;81.30
66594;DHT22;53450;42.584;23.366;2023-02-24T06:13:51;4.56;81.58
66594;DHT22;53450;42.584;23.366;2023-02-24T06:16:22;4.61;81.93
66594;DHT22;53450;42.584;23.366;2023-02-24T06:18:50;4.64;82.03
66594;DHT22;53450;42.584;23.366;2023-02-24T06:21:16;4.77;81.36
66594;DHT22;53450;42.584;23.366;2023-02-24T06:23:43;4.87;81.10
66594;DHT22;53450;42.584;23.366;2023-02-24T06:26:09;4.85;81.67
66594;DHT22;53450;42.584;23.366;2023-02-24T06:28:40;4.89;81.82
66594;DHT22;53450;42.584;23.366;2023-02-24T06:31:09;4.83;81.12
66594;DHT22;53450;42.584;23.366;2023-02-24T06:33:36;4.71;81.54
66594;DHT22;53450;42.584;23.366;2023-02-24T06:36:03;4.65;81.62
66594;DHT22;53450;42.584;23.366;2023-02-24T06:38:30;4.53;82.09
66594;DHT22;53450;42.584;23.366;2023-02-24T06:40:59;4.67;82.07
66594;DHT22;53450;42.584;23.366;2023-02-24T06:43:31;4.78;81.97
66594;DHT22;53450;42.584;23.366;2023-02-24T06:45:58;4.85;81.84
66594;DHT22;53450;42.584;23.366;2023-02-24T06:48:25;5.01;80.82
66594;DHT22;53450;42.584;23.366;2023-02-24T06:50:52;5.04;80.87
66594;DHT22;53450;42.584;23.366;2023-02-24T06:53:19;4.92;81.58
66594;DHT22;53450;42.584;23.366;2023-02-24T06:55:46;5.02;81.34
66594;DHT22;53450;42.584;23.366;2023-02-24T06:58:18;5.13;81.13
66594;DHT22;53450;42.584;23.366;2023-02-24T07:00:47;5.40;80.71
66594;DHT22;53450;42.584;23.366;2023-02-24T07:03:46;5.43;80.36
66594;DHT22;53450;42.584;23.366;2023-02-24T07:07:06;5.42;80.14
66594;DHT22;53450;42.584;23.366;2023-02-24T07:09:32;5.36;80.05
66594;DHT22;53450;42.584;23.366;2023-02-24T07:11:59;5.52;79.97
66594;DHT22;53450;42.584;23.366;2023-02-24T07:14:27;5.63;79.81
66594;DHT22;53450;42.584;23.366;2023-02-24T07:16:56;5.75;79.11
66594;DHT22;53450;42.584;23.366;2023-02-24T07:19:27;5.81;78.99
66594;DHT22;53450;42.584;23.366;2023-02-24T07:22:01;5.78;79.12
66594;DHT22;53450;42.584;23.366;2023-02-24T07:24:33;5.77;79.24
66594;DHT22;53450;42.584;23.366;2023-02-24T07:27:07;5.73;79.21
66594;DHT22;53450;42.584;23.366;2023-02-24T07:29:34;5.53;79.61
66594;DHT22;53450;42.584;23.366;2023-02-24T07:32:01;5.47;80.21
66594;DHT22;53450;42.584;23.366;2023-02-24T07:34:30;5.54;80.34
66594;DHT22;53450;42.584;23.366;2023-02-24T07:36:56;5.59;79.93
66594;DHT22;53450;42.584;23.366;2023-02-24T07:39:23;5.71;79.75
66594;DHT22;53450;42.584;23.366;2023-02-24T07:41:50;5.74;79.36
66594;DHT22;53450;42.584;23.366;2023-02-24T07:44:43;6.00;79.07
66594;DHT22;53450;42.584;23.366;2023-02-24T07:47:36;5.78;78.89
66594;DHT22;53450;42.584;23.366;2023-02-24T07:50:01;5.60;79.16
66594;DHT22;53450;42.584;23.366;2023-02-24T07:52:28;5.53;80.11
66594;DHT22;53450;42.584;23.366;2023-02-24T07:54:57;5.67;79.75
66594;DHT22;53450;42.584;23.366;2023-02-24T07:57:23;5.78;79.66
66594;DHT22;53450;42.584;23.366;2023-02-24T08:00:16;5.71;79.30
66594;DHT22;53450;42.584;23.366;2023-02-24T08:02:48;5.63;79.33
66594;DHT22;53450;42.584;23.366;2023-02-24T08:05:15;5.80;79.29
66594;DHT22;53450;42.584;23.366;2023-02-24T08:07:45;6.04;78.46
66594;DHT22;53450;42.584;23.366;2023-02-24T08:10:18;6.00;78.37
66594;DHT22;53450;42.584;23.366;2023-02-24T08:12:55;5.95;78.54
66594;DHT22;53450;42.584;23.366;2023-02-24T08:15:25;6.10;78.13
66594;DHT22;53450;42.584;23.366;2023-02-24T08:17:56;6.08;78.30
66594;DHT22;53450;42.584;23.366;2023-02-24T08:20:29;6.01;78.46
66594;DHT22;53450;42.584;23.366;2023-02-24T08:23:00;6.02;78.63
66594;DHT22;53450;42.584;23.366;2023-02-24T08:25:28;6.10;78.42
66594;DHT22;53450;42.584;23.366;2023-02-24T08:28:01;5.98;79.08
66594;DHT22;53450;42.584;23.366;2023-02-24T08:30:32;6.20;78.93
66594;DHT22;53450;42.584;23.366;2023-02-24T08:33:05;6.25;78.46
66594;DHT22;53450;42.584;23.366;2023-02-24T08:35:34;6.24;78.56
66594;DHT22;53450;42.584;23.366;2023-02-24T08:38:06;6.41;77.71
66594;DHT22;53450;42.584;23.366;2023-02-24T08:40:35;6.53;77.51
66594;DHT22;53450;42.584;23.366;2023-02-24T08:43:10;6.68;77.66
66594;DHT22;53450;42.584;23.366;2023-02-24T08:45:53;6.87;76.35
66594;DHT22;53450;42.584;23.366;2023-02-24T08:48:36;6.96;75.73
66594;DHT22;53450;42.584;23.366;2023-02-24T08:53:40;7.07;75.37
66594;DHT22;53450;42.584;23.366;2023-02-24T08:56:08;7.15;75.15
66594;DHT22;53450;42.584;23.366;2023-02-24T08:59:03;7.20;74.78
66594;DHT22;53450;42.584;23.366;2023-02-24T09:01:37;7.35;74.50
66594;DHT22;53450;42.584;23.366;2023-02-24T09:04:11;7.44;74.34
66594;DHT22;53450;42.584;23.366;2023-02-24T09:06:50;7.56;74.54
66594;DHT22;53450;42.584;23.366;2023-02-24T09:09:22;7.73;73.94
66594;DHT22;53450;42.584;23.366;2023-02-24T09:11:50;7.47;73.88
66594;DHT22;53450;42.584;23.366;2023-02-24T09:14:23;7.55;74.26
66594;DHT22;53450;42.584;23.366;2023-02-24T09:16:51;7.59;73.75
66594;DHT22;53450;42.584;23.366;2023-02-24T09:19:46;7.75;73.39
66594;DHT22;53450;42.584;23.366;2023-02-24T09:22:13;7.58;73.78
66594;DHT22;53450;42.584;23.366;2023-02-24T09:25:04;7.48;74.36
66594;DHT22;53450;42.584;23.366;2023-02-24T09:28:04;7.56;73.71
66594;DHT22;53450;42.584;23.366;2023-02-24T09:30:39;7.55;74.06
66594;DHT22;53450;42.584;23.366;2023-02-24T09:33:39;7.35;74.70
66594;DHT22;53450;42.584;23.366;2023-02-24T09:36:14;7.54;73.92
66594;DHT22;53450;42.584;23.366;2023-02-24T09:39:01;7.31;74.25
66594;DHT22;53450;42.584;23.366;2023-02-24T09:44:13;7.75;73.81
66594;DHT22;53450;42.584;23.366;2023-02-24T09:46:47;8.09;73.01
66594;DHT22;53450;42.584;23.366;2023-02-24T09:49:19;8.33;71.92
66594;DHT22;53450;42.584;23.366;2023-02-24T09:51:49;8.33;71.83
66594;DHT22;53450;42.584;23.366;2023-02-24T09:54:29;8.37;71.69
66594;DHT22;53450;42.584;23.366;2023-02-24T09:57:01;8.48;71.18
66594;DHT22;53450;42.584;23.366;2023-02-24T09:59:53;8.55;71.06
66594;DHT22;53450;42.584;23.366;2023-02-24T10:03:20;8.40;71.27
66594;DHT22;53450;42.584;23.366;2023-02-24T10:11:57;8.11;72.65
66594;DHT22;53450;42.584;23.366;2023-02-24T10:14:35;7.99;72.41
66594;DHT22;53450;42.584;23.366;2023-02-24T10:17:16;7.91;73.07
66594;DHT22;53450;42.584;23.366;2023-02-24T10:20:21;7.72;74.06
66594;DHT22;53450;42.584;23.366;2023-02-24T10:26:05;8.14;72.91
66594;DHT22;53450;42.584;23.366;2023-02-24T10:28:45;8.09;72.36
66594;DHT22;53450;42.584;23.366;2023-02-24T10:31:44;7.97;73.00
66594;DHT22;53450;42.584;23.366;2023-02-24T10:34:13;7.87;73.35
66594;DHT22;53450;42.584;23.366;2023-02-24T10:37:17;7.99;73.05
66594;DHT22;53450;42.584;23.366;2023-02-24T10:39:44;7.65;74.03
66594;DHT22;53450;42.584;23.366;2023-02-24T10:42:39;7.69;74.32
66594;DHT22;53450;42.584;23.366;2023-02-24T10:45:39;7.61;74.78
66594;DHT22;53450;42.584;23.366;2023-02-24T10:48:19;7.86;74.59
66594;DHT22;53450;42.584;23.366;2023-02-24T10:50:54;7.99;73.87
66594;DHT22;53450;42.584;23.366;2023-02-24T10:53:25;7.96;73.71
66594;DHT22;53450;42.584;23.366;2023-02-24T10:56:05;8.13;73.23
66594;DHT22;53450;42.584;23.366;2023-02-24T10:59:02;8.28;73.21
66594;DHT22;53450;42.584;23.366;2023-02-24T11:04:52;8.47;72.23
66594;DHT22;53450;42.584;23.366;2023-02-24T11:07:27;8.58;72.06
66594;DHT22;53450;42.584;23.366;2023-02-24T11:10:23;8.65;71.56
66594;DHT22;53450;42.584;23.366;2023-02-24T11:12:59;8.71;71.62
66594;DHT22;53450;42.584;23.366;2023-02-24T11:15:52;8.90;71.45
66594;DHT22;53450;42.584;23.366;2023-02-24T11:18:37;8.95;71.12
66594;DHT22;53450;42.584;23.366;2023-02-24T11:21:11;8.93;70.73
66594;DHT22;53450;42.584;23.366;2023-02-24T11:23:40;8.64;71.10
66594;DHT22;53450;42.584;23.366;2023-02-24T11:26:14;8.34;72.26
66594;DHT22;53450;42.584;23.366;2023-02-24T11:34:08;8.41;71.87
66594;DHT22;53450;42.584;23.366;2023-02-24T11:39:24;8.13;72.88
66594;DHT22;53450;42.584;23.366;2023-02-24T11:41:56;8.01;73.60
66594;DHT22;53450;42.584;23.366;2023-02-24T11:44:57;8.11;73.14
66594;DHT22;53450;42.584;23.366;2023-02-24T11:47:34;8.14;73.41
66594;DHT22;53450;42.584;23.366;2023-02-24T11:52:47;8.19;73.05
66594;DHT22;53450;42.584;23.366;2023-02-24T11:55:44;8.36;73.10
66594;DHT22;53450;42.584;23.366;2023-02-24T12:00:51;8.27;73.10
66594;DHT22;53450;42.584;23.366;2023-02-24T12:03:29;8.17;73.53
66594;DHT22;53450;42.584;23.366;2023-02-24T12:06:07;8.52;72.92
66594;DHT22;53450;42.584;23.366;2023-02-24T12:08:38;8.61;72.35
66594;DHT22;53450;42.584;23.366;2023-02-24T12:11:17;8.83;71.89
66594;DHT22;53450;42.584;23.366;2023-02-24T12:17:17;8.83;72.04
66594;DHT22;53450;42.584;23.366;2023-02-24T12:36:44;9.89;68.28
66594;DHT22;53450;42.584;23.366;2023-02-24T12:51:07;9.47;70.42
66594;DHT22;53450;42.584;23.366;2023-02-24T12:59:03;9.05;72.43
66594;DHT22;53450;42.584;23.366;2023-02-24T13:01:40;9.13;72.51
66594;DHT22;53450;42.584;23.366;2023-02-24T13:13:03;9.58;72.88
66594;DHT22;53450;42.584;23.366;2023-02-24T13:15:29;9.62;71.56
66594;DHT22;53450;42.584;23.366;2023-02-24T13:17:56;9.59;71.85
66594;DHT22;53450;42.584;23.366;2023-02-24T13:20:27;9.52;72.12
66594;DHT22;53450;42.584;23.366;2023-02-24T13:22:53;9.47;71.87
66594;DHT22;53450;42.584;23.366;2023-02-24T13:25:28;9.67;72.40
66594;DHT22;53450;42.584;23.366;2023-02-24T13:27:57;9.84;71.44
66594;DHT22;53450;42.584;23.366;2023-02-24T13:30:39;9.92;70.16
66594;DHT22;53450;42.584;23.366;2023-02-24T13:33:17;9.94;68.93
66594;DHT22;53450;42.584;23.366;2023-02-24T13:35:46;9.88;70.46
66594;DHT22;53450;42.584;23.366;2023-02-24T13:43:58;9.62;70.71
66594;DHT22;53450;42.584;23.366;2023-02-24T13:46:27;9.88;70.54
66594;DHT22;53450;42.584;23.366;2023-02-24T13:51:58;10.09;69.73
66594;DHT22;53450;42.584;23.366;2023-02-24T14:03:10;10.30;69.35
66594;DHT22;53450;42.584;23.366;2023-02-24T14:05:39;10.30;68.35
66594;DHT22;53450;42.584;23.366;2023-02-24T14:08:05;10.35;68.46
66594;DHT22;53450;42.584;23.366;2023-02-24T14:10:31;10.33;68.50
66594;DHT22;53450;42.584;23.366;2023-02-24T14:13:16;10.49;68.45
66594;DHT22;53450;42.584;23.366;2023-02-24T14:16:09;10.46;68.34
66594;DHT22;53450;42.584;23.366;2023-02-24T14:19:01;10.35;68.92
66594;DHT22;53450;42.584;23.366;2023-02-24T14:21:57;10.30;68.78
66594;DHT22;53450;42.584;23.366;2023-02-24T14:24:23;10.43;68.33
66594;DHT22;53450;42.584;23.366;2023-02-24T14:26:58;10.46;67.78
66594;DHT22;53450;42.584;23.366;2023-02-24T14:29:27;10.42;67.65
66594;DHT22;53450;42.584;23.366;2023-02-24T14:31:56;10.43;67.68
66594;DHT22;53450;42.584;23.366;2023-02-24T14:34:25;10.43;67.19
66594;DHT22;53450;42.584;23.366;2023-02-24T14:36:53;10.40;67.01
66594;DHT22;53450;42.584;23.366;2023-02-24T14:39:23;10.40;67.16
66594;DHT22;53450;42.584;23.366;2023-02-24T14:41:50;10.33;67.24
66594;DHT22;53450;42.584;23.366;2023-02-24T14:44:23;10.35;67.17
66594;DHT22;53450;42.584;23.366;2023-02-24T14:46:57;10.54;66.07
66594;DHT22;53450;42.584;23.366;2023-02-24T14:49:33;10.61;66.63
66594;DHT22;53450;42.584;23.366;2023-02-24T14:52:04;10.63;66.41
66594;DHT22;53450;42.584;23.366;2023-02-24T14:54:41;10.47;67.10
66594;DHT22;53450;42.584;23.366;2023-02-24T14:57:16;10.43;66.93
66594;DHT22;53450;42.584;23.366;2023-02-24T15:00:14;10.37;67.02
66594;DHT22;53450;42.584;23.366;2023-02-24T15:05:49;10.20;67.91
66594;DHT22;53450;42.584;23.366;2023-02-24T15:08:36;10.26;67.91
66594;DHT22;53450;42.584;23.366;2023-02-24T15:11:29;10.23;67.70
66594;DHT22;53450;42.584;23.366;2023-02-24T15:14:14;10.20;68.05
66594;DHT22;53450;42.584;23.366;2023-02-24T15:16:46;10.26;68.25
66594;DHT22;53450;42.584;23.366;2023-02-24T15:19:34;10.09;70.19
66594;DHT22;53450;42.584;23.366;2023-02-24T15:22:16;10.03;71.00
66594;DHT22;53450;42.584;23.366;2023-02-24T15:24:42;9.92;72.10
66594;DHT22;53450;42.584;23.366;2023-02-24T15:29:40;10.05;71.50
66594;DHT22;53450;42.584;23.366;2023-02-24T15:32:14;10.02;71.43
66594;DHT22;53450;42.584;23.366;2023-02-24T15:34:44;9.95;71.98
66594;DHT22;53450;42.584;23.366;2023-02-24T15:37:22;10.05;71.03
66594;DHT22;53450;42.584;23.366;2023-02-24T15:39:51;9.94;71.29
66594;DHT22;53450;42.584;23.366;2023-02-24T15:42:25;9.79;72.11
66594;DHT22;53450;42.584;23.366;2023-02-24T15:45:33;9.65;72.12
66594;DHT22;53450;42.584;23.366;2023-02-24T15:48:02;9.31;72.86
66594;DHT22;53450;42.584;23.366;2023-02-24T15:50:29;9.22;73.06
66594;DHT22;53450;42.584;23.366;2023-02-24T15:52:58;9.02;73.66
66594;DHT22;53450;42.584;23.366;2023-02-24T15:55:26;8.83;74.07
66594;DHT22;53450;42.584;23.366;2023-02-24T15:57:58;8.71;74.43
66594;DHT22;53450;42.584;23.366;2023-02-24T16:00:50;8.59;74.47
66594;DHT22;53450;42.584;23.366;2023-02-24T16:03:41;8.58;74.55
66594;DHT22;53450;42.584;23.366;2023-02-24T16:06:16;8.42;74.44
66594;DHT22;53450;42.584;23.366;2023-02-24T16:08:43;8.28;74.95
66594;DHT22;53450;42.584;23.366;2023-02-24T16:11:12;8.17;74.95
66594;DHT22;53450;42.584;23.366;2023-02-24T16:13:39;8.17;73.97
66594;DHT22;53450;42.584;23.366;2023-02-24T16:16:10;8.24;73.25
66594;DHT22;53450;42.584;23.366;2023-02-24T16:18:36;8.30;72.49
66594;DHT22;53450;42.584;23.366;2023-02-24T16:21:02;8.33;71.88
66594;DHT22;53450;42.584;23.366;2023-02-24T16:23:28;8.41;71.38
66594;DHT22;53450;42.584;23.366;2023-02-24T16:25:56;8.48;70.60
66594;DHT22;53450;42.584;23.366;2023-02-24T16:28:22;8.61;70.05
66594;DHT22;53450;42.584;23.366;2023-02-24T16:30:49;8.64;69.91
66594;DHT22;53450;42.584;23.366;2023-02-24T16:33:16;8.61;69.66
66594;DHT22;53450;42.584;23.366;2023-02-24T16:35:42;8.72;69.46
66594;DHT22;53450;42.584;23.366;2023-02-24T16:38:16;8.67;69.62
66594;DHT22;53450;42.584;23.366;2023-02-24T16:40:45;8.61;70.00
66594;DHT22;53450;42.584;23.366;2023-02-24T16:43:11;8.55;70.31
66594;DHT22;53450;42.584;23.366;2023-02-24T16:45:38;8.59;70.22
66594;DHT22;53450;42.584;23.366;2023-02-24T16:48:07;8.57;69.89
66594;DHT22;53450;42.584;23.366;2023-02-24T16:50:37;8.52;70.08
66594;DHT22;53450;42.584;23.366;2023-02-24T16:53:04;8.51;69.96
66594;DHT22;53450;42.584;23.366;2023-02-24T16:55:30;8.67;69.39
66594;DHT22;53450;42.584;23.366;2023-02-24T16:57:55;8.72;69.26
66594;DHT22;53450;42.584;23.366;2023-02-24T17:00:21;8.82;69.07
66594;DHT22;53450;42.584;23.366;2023-02-24T17:02:48;8.96;68.56
66594;DHT22;53450;42.584;23.366;2023-02-24T17:05:19;8.89;68.23
66594;DHT22;53450;42.584;23.366;2023-02-24T17:07:46;8.96;67.71
66594;DHT22;53450;42.584;23.366;2023-02-24T17:10:12;8.96;67.20
66594;DHT22;53450;42.584;23.366;2023-02-24T17:12:37;9.17;66.68
66594;DHT22;53450;42.584;23.366;2023-02-24T17:15:03;9.27;66.49
66594;DHT22;53450;42.584;23.366;2023-02-24T17:17:29;9.19;66.52
66594;DHT22;53450;42.584;23.366;2023-02-24T17:19:55;9.22;65.28
66594;DHT22;53450;42.584;23.366;2023-02-24T17:22:21;9.34;65.45
66594;DHT22;53450;42.584;23.366;2023-02-24T17:24:47;9.31;65.97
66594;DHT22;53450;42.584;23.366;2023-02-24T17:27:13;9.23;66.51
66594;DHT22;53450;42.584;23.366;2023-02-24T17:29:39;9.16;66.65
66594;DHT22;53450;42.584;23.366;2023-02-24T17:32:04;9.16;66.55
66594;DHT22;53450;42.584;23.366;2023-02-24T17:34:30;9.23;66.74
66594;DHT22;53450;42.584;23.366;2023-02-24T17:36:57;9.27;66.27
66594;DHT22;53450;42.584;23.366;2023-02-24T17:39:23;9.37;66.47
66594;DHT22;53450;42.584;23.366;2023-02-24T17:41:49;9.28;66.89
66594;DHT22;53450;42.584;23.366;2023-02-24T17:44:14;9.17;66.92
66594;DHT22;53450;42.584;23.366;2023-02-24T17:46:40;9.12;67.08
66594;DHT22;53450;42.584;23.366;2023-02-24T17:49:05;9.22;67.13
66594;DHT22;53450;42.584;23.366;2023-02-24T17:51:31;9.17;67.39
66594;DHT22;53450;42.584;23.366;2023-02-24T17:53:57;9.16;67.35
66594;DHT22;53450;42.584;23.366;2023-02-24T17:56:23;9.15;67.53
66594;DHT22;53450;42.584;23.366;2023-02-24T17:58:48;9.09;67.72
66594;DHT22;53450;42.584;23.366;2023-02-24T18:01:38;8.99;67.92
66594;DHT22;53450;42.584;23.366;2023-02-24T18:04:04;8.92;68.30
66594;DHT22;53450;42.584;23.366;2023-02-24T18:06:29;8.92;68.01
66594;DHT22;53450;42.584;23.366;2023-02-24T18:08:55;9.03;67.84